ADL weather

Adelaide International Airport
Adelaide, South Australia, Australia

Public forecast

Using degrees Celsius for public forecast. Weather courtesy of forecast.io.

METAR (pilot weather report)

Retrieved 2019/01/24 11:00 UTC (3 minutes ago):

YPAD 241100Z 21007KT CAVOK 36/12 Q1002 NOSIG

TAF (pilot weather forecast)

Retrieved 2019/01/24 06:00 UTC (5 hours ago):

TAF YPAD 240506Z 2406/2512 31012KT CAVOK FM241000 04008KT CAVOK FM241300 20012KT CAVOK FM250000 23014KT CAVOK FM251000 19007KT CAVOK